Time;durP1;ratioP1;P1;durP2;ratioP2;P2;SDS_P1;SDS_P2;PMS_P1;PMS_P2;Temp;Humidity;BMP_temperature;BMP_pressure;BME280_temperature;BME280_humidity;BME280_pressure;Samples;Min_cycle;Max_cycle;Signal;HPM_P1;HPM_P2
2023/07/16 00:01:57;;;;;;;10.65;3.35;;;17.60;99.90;;;;;;4938051;29;20518;-67
2023/07/16 00:04:24;;;;;;;7.85;2.97;;;;;;;;;;4938336;29;20036;-68
2023/07/16 00:06:49;;;;;;;12.82;2.92;;;17.60;99.90;;;;;;4937106;29;20047;-68
2023/07/16 00:09:15;;;;;;;9.00;2.75;;;17.80;99.90;;;;;;4936967;29;20055;-68
2023/07/16 00:11:41;;;;;;;10.95;2.88;;;17.50;99.90;;;;;;4938254;29;20087;-67
2023/07/16 00:14:06;;;;;;;10.38;3.05;;;17.50;99.90;;;;;;4938104;29;20043;-68
2023/07/16 00:16:32;;;;;;;9.73;3.30;;;17.50;99.90;;;;;;4936746;29;20427;-67
2023/07/16 00:18:58;;;;;;;9.00;2.80;;;17.50;99.90;;;;;;4936740;29;20102;-68
2023/07/16 00:21:24;;;;;;;9.20;3.00;;;17.50;99.90;;;;;;4938018;29;20044;-69
2023/07/16 00:23:50;;;;;;;18.60;3.40;;;17.40;99.90;;;;;;4937989;29;20525;-68
2023/07/16 00:26:15;;;;;;;12.20;3.78;;;17.60;99.90;;;;;;4920739;29;20123;-68
2023/07/16 00:28:41;;;;;;;8.07;3.05;;;17.50;99.90;;;;;;4937656;29;20039;-67
2023/07/16 00:31:07;;;;;;;9.60;3.13;;;17.50;99.90;;;;;;4936488;29;20172;-68
2023/07/16 00:33:32;;;;;;;8.60;2.80;;;17.30;99.90;;;;;;4937588;29;20466;-67
2023/07/16 00:35:58;;;;;;;10.63;3.63;;;17.50;99.90;;;;;;4937987;29;20039;-69
2023/07/16 00:38:24;;;;;;;12.32;2.85;;;17.20;99.90;;;;;;4937428;29;20130;-67
2023/07/16 00:40:49;;;;;;;9.07;2.40;;;17.30;99.90;;;;;;4937578;29;20062;-68
2023/07/16 00:43:15;;;;;;;11.35;3.75;;;17.50;99.90;;;;;;4937349;29;20090;-67
2023/07/16 00:45:44;;;;;;;11.93;2.63;;;17.60;99.90;;;;;;4936164;29;20063;-67
2023/07/16 00:48:10;;;;;;;9.70;3.13;;;17.60;99.90;;;;;;4937236;29;20055;-67
2023/07/16 00:50:39;;;;;;;10.43;3.25;;;17.40;99.90;;;;;;4937256;29;20036;-66
2023/07/16 00:53:06;;;;;;;6.95;2.55;;;17.60;99.90;;;;;;4936147;29;20043;-66
2023/07/16 00:55:33;;;;;;;9.32;3.00;;;17.50;99.90;;;;;;4936032;29;20048;-67
2023/07/16 00:58:05;;;;;;;15.15;3.35;;;17.60;99.90;;;;;;4935874;29;20537;-67
2023/07/16 01:00:32;;;;;;;9.43;3.08;;;17.60;99.90;;;;;;4919167;29;20043;-68
2023/07/16 01:02:58;;;;;;;9.80;3.28;;;17.50;99.90;;;;;;4937232;29;20047;-67
2023/07/16 01:05:27;;;;;;;13.95;3.58;;;17.70;99.90;;;;;;4937115;29;20038;-67
2023/07/16 01:08:04;;;;;;;12.60;2.90;;;17.70;99.90;;;;;;4937113;29;20586;-68
2023/07/16 01:10:30;;;;;;;14.30;4.00;;;17.70;99.90;;;;;;4935965;29;20050;-68
2023/07/16 01:12:57;;;;;;;11.38;3.20;;;17.60;99.90;;;;;;4935916;29;20440;-69
2023/07/16 01:15:23;;;;;;;13.05;3.05;;;17.60;99.90;;;;;;4937007;29;20043;-68
2023/07/16 01:17:48;;;;;;;9.30;3.40;;;17.60;99.90;;;;;;4937180;29;20403;-67
2023/07/16 01:20:14;;;;;;;12.43;3.05;;;17.50;99.90;;;;;;4935570;29;20474;-68
2023/07/16 01:23:26;;;;;;;11.70;3.58;;;17.60;99.90;;;;;;4936839;29;20074;-67
2023/07/16 01:26:07;;;;;;;7.28;2.80;;;17.50;99.90;;;;;;4935528;29;20047;-68
2023/07/16 01:28:45;;;;;;;10.95;3.45;;;17.50;99.90;;;;;;4936452;29;20059;-67
2023/07/16 01:31:11;;;;;;;8.60;3.40;;;17.40;99.90;;;;;;4936709;29;20091;-66
2023/07/16 01:33:40;;;;;;;13.70;3.58;;;17.40;99.90;;;;;;4935354;29;20499;-67
2023/07/16 01:36:07;;;;;;;10.32;2.80;;;17.50;99.90;;;;;;4935173;29;20044;-67
2023/07/16 01:38:33;;;;;;;9.98;2.58;;;17.50;99.90;;;;;;4936356;29;20079;-66
2023/07/16 01:40:58;;;;;;;14.40;2.72;;;17.50;99.90;;;;;;4936324;29;20522;-66
2023/07/16 01:43:24;;;;;;;8.70;2.75;;;17.60;99.90;;;;;;4936405;29;20044;-67
2023/07/16 01:45:50;;;;;;;12.35;2.80;;;17.50;99.90;;;;;;4936372;29;20039;-67
2023/07/16 01:48:30;;;;;;;7.00;2.97;;;17.40;99.90;;;;;;4936123;29;20040;-67
2023/07/16 01:50:56;;;;;;;10.30;3.47;;;17.70;99.90;;;;;;4936785;29;20073;-67
2023/07/16 01:53:22;;;;;;;8.07;2.40;;;17.60;99.90;;;;;;4936696;29;20078;-68
2023/07/16 01:55:47;;;;;;;9.30;2.92;;;17.50;99.90;;;;;;4935123;29;20049;-67
2023/07/16 01:58:13;;;;;;;10.48;2.22;;;;;;;;;;4919367;29;20470;-66
2023/07/16 02:00:39;;;;;;;8.73;3.20;;;17.40;99.90;;;;;;4934900;29;20044;-67
2023/07/16 02:03:05;;;;;;;12.27;2.53;;;17.50;99.90;;;;;;4934722;29;20043;-68
2023/07/16 02:05:31;;;;;;;8.98;2.67;;;17.40;99.90;;;;;;4936451;29;20065;-67
2023/07/16 02:07:57;;;;;;;8.93;2.78;;;;;;;;;;4935914;29;20095;-67
2023/07/16 02:10:23;;;;;;;6.38;2.30;;;17.50;99.90;;;;;;4935439;29;20043;-67
2023/07/16 02:12:48;;;;;;;8.82;2.75;;;17.30;99.90;;;;;;4935400;29;20047;-67
2023/07/16 02:15:14;;;;;;;8.35;2.33;;;17.50;99.90;;;;;;4934580;29;20048;-67
2023/07/16 02:17:40;;;;;;;8.82;2.95;;;17.40;99.90;;;;;;4934589;29;20036;-67
2023/07/16 02:20:06;;;;;;;12.23;3.15;;;17.30;99.90;;;;;;4935511;29;20097;-67
2023/07/16 02:22:32;;;;;;;7.68;2.33;;;17.50;99.90;;;;;;4934370;29;20138;-67
2023/07/16 02:24:57;;;;;;;10.85;3.83;;;17.30;99.90;;;;;;4935829;29;20126;-67
2023/07/16 02:27:23;;;;;;;7.93;2.50;;;;;;;;;;4934289;29;20044;-68
2023/07/16 02:29:49;;;;;;;7.07;2.80;;;17.50;99.90;;;;;;4918238;29;20040;-68
2023/07/16 02:32:15;;;;;;;8.98;2.90;;;17.40;99.90;;;;;;4934143;29;20121;-67
2023/07/16 02:34:40;;;;;;;8.40;2.80;;;17.30;99.90;;;;;;4934118;29;20126;-67
2023/07/16 02:37:06;;;;;;;7.43;3.17;;;17.40;99.90;;;;;;4918248;29;20050;-67
2023/07/16 02:39:32;;;;;;;8.13;3.20;;;17.20;99.90;;;;;;4935131;29;20122;-68
2023/07/16 02:41:57;;;;;;;13.68;4.38;;;17.30;99.90;;;;;;4935259;29;20050;-67
2023/07/16 02:44:23;;;;;;;12.15;3.60;;;17.30;99.90;;;;;;4935309;29;20075;-67
2023/07/16 02:46:49;;;;;;;10.70;3.60;;;;;;;;;;4935606;29;20491;-67
2023/07/16 02:49:15;;;;;;;12.35;3.97;;;17.10;99.90;;;;;;4934447;29;20097;-68
2023/07/16 02:51:40;;;;;;;9.88;3.47;;;17.20;99.90;;;;;;4935180;29;20134;-67
2023/07/16 02:54:06;;;;;;;8.18;3.65;;;17.20;99.90;;;;;;4936063;29;20126;-68
2023/07/16 02:56:32;;;;;;;16.42;3.85;;;17.20;99.90;;;;;;4933858;29;20055;-67
2023/07/16 02:58:57;;;;;;;7.53;3.25;;;17.00;99.90;;;;;;4935090;29;20050;-67
2023/07/16 03:01:23;;;;;;;8.80;4.38;;;17.00;99.90;;;;;;4934878;29;20048;-67
2023/07/16 03:03:49;;;;;;;9.80;3.67;;;17.20;99.90;;;;;;4934849;29;20039;-67
2023/07/16 03:06:14;;;;;;;9.32;4.90;;;17.20;99.90;;;;;;4935085;29;20031;-67
2023/07/16 03:08:40;;;;;;;8.05;3.63;;;17.10;99.90;;;;;;4934525;29;20040;-67
2023/07/16 03:11:06;;;;;;;12.60;4.03;;;17.20;99.90;;;;;;4934870;29;20046;-67
2023/07/16 03:13:31;;;;;;;13.98;4.18;;;17.00;99.90;;;;;;4934845;29;20062;-67
2023/07/16 03:15:57;;;;;;;13.88;4.05;;;17.20;99.90;;;;;;4934749;29;20062;-67
2023/07/16 03:18:29;;;;;;;13.45;4.55;;;17.00;99.90;;;;;;4933294;29;20039;-67
2023/07/16 03:20:54;;;;;;;15.77;5.00;;;17.00;99.90;;;;;;4933692;29;20032;-67
2023/07/16 03:23:20;;;;;;;11.73;3.58;;;;;;;;;;4934500;29;20434;-67
2023/07/16 03:25:46;;;;;;;9.23;4.30;;;;;;;;;;4933427;29;20411;-67
2023/07/16 03:28:13;;;;;;;10.43;4.30;;;17.10;99.90;;;;;;4933624;29;20513;-68
2023/07/16 03:30:38;;;;;;;12.13;3.92;;;17.10;99.90;;;;;;4932881;29;20046;-67
2023/07/16 03:33:05;;;;;;;12.27;4.05;;;;;;;;;;4917729;29;20396;-68
2023/07/16 03:35:30;;;;;;;10.43;4.07;;;17.20;99.90;;;;;;4933314;29;20079;-68
2023/07/16 03:37:56;;;;;;;9.88;4.22;;;17.10;99.90;;;;;;4933467;29;20147;-67
2023/07/16 03:40:25;;;;;;;9.80;4.30;;;17.10;99.90;;;;;;4934281;29;20044;-67
2023/07/16 03:42:51;;;;;;;12.38;5.13;;;;;;;;;;4934542;29;20046;-69
2023/07/16 03:45:17;;;;;;;11.95;3.85;;;17.10;99.90;;;;;;4934436;29;20039;-67
2023/07/16 03:47:42;;;;;;;10.27;4.35;;;17.10;99.90;;;;;;4934506;29;20400;-67
2023/07/16 03:50:08;;;;;;;10.43;4.25;;;17.10;99.90;;;;;;4932866;29;20044;-67
2023/07/16 03:52:34;;;;;;;11.27;4.22;;;17.20;99.90;;;;;;4933106;29;20095;-67
2023/07/16 03:55:00;;;;;;;10.63;4.50;;;;;;;;;;4934422;29;20035;-67
2023/07/16 03:57:28;;;;;;;10.13;5.13;;;17.30;99.90;;;;;;4934422;29;20044;-67
2023/07/16 03:59:53;;;;;;;17.77;4.90;;;17.30;99.90;;;;;;4932653;29;20047;-67
2023/07/16 04:02:19;;;;;;;16.38;4.57;;;17.20;99.90;;;;;;4933033;29;20058;-67
2023/07/16 04:04:45;;;;;;;14.48;4.90;;;17.30;99.90;;;;;;4933080;29;20044;-67
2023/07/16 04:07:11;;;;;;;14.70;4.80;;;;;;;;;;4934365;29;20040;-67
2023/07/16 04:09:39;;;;;;;12.57;5.32;;;17.40;99.90;;;;;;4932860;29;20092;-67
2023/07/16 04:12:06;;;;;;;10.50;4.32;;;17.30;99.90;;;;;;4934343;29;20160;-67
2023/07/16 04:14:32;;;;;;;11.88;4.95;;;17.40;99.90;;;;;;4934190;29;20099;-67
2023/07/16 04:16:58;;;;;;;12.25;4.07;;;17.30;99.90;;;;;;4934437;29;20134;-66
2023/07/16 04:19:24;;;;;;;13.77;5.30;;;17.40;99.90;;;;;;4932867;29;20535;-67
2023/07/16 04:21:49;;;;;;;17.15;5.75;;;17.50;99.90;;;;;;4934123;29;20083;-68
2023/07/16 04:24:15;;;;;;;13.43;4.75;;;17.50;99.90;;;;;;4932928;29;20054;-68
2023/07/16 04:26:41;;;;;;;14.45;4.72;;;17.60;99.90;;;;;;4932843;29;20515;-68
2023/07/16 04:29:06;;;;;;;11.05;4.78;;;17.60;99.90;;;;;;4932644;29;20162;-68
2023/07/16 04:31:32;;;;;;;18.42;5.43;;;17.60;99.90;;;;;;4933161;29;20052;-68
2023/07/16 04:33:58;;;;;;;17.10;5.80;;;17.70;99.90;;;;;;4932878;29;20095;-68
2023/07/16 04:36:23;;;;;;;10.77;5.15;;;17.50;99.90;;;;;;4937355;29;20132;-68
2023/07/16 04:38:49;;;;;;;11.52;5.35;;;17.60;99.90;;;;;;4935914;29;20107;-70
2023/07/16 04:41:16;;;;;;;27.88;6.32;;;17.60;99.90;;;;;;4936169;29;20047;-66
2023/07/16 04:43:41;;;;;;;10.05;6.13;;;17.70;99.90;;;;;;4936124;29;20054;-68
2023/07/16 04:46:07;;;;;;;11.23;5.40;;;;;;;;;;4937356;29;20035;-69
2023/07/16 04:48:33;;;;;;;15.80;6.20;;;17.80;99.90;;;;;;4937200;29;20048;-68
2023/07/16 04:50:59;;;;;;;13.93;5.25;;;17.90;99.90;;;;;;4936003;29;20099;-68
2023/07/16 04:53:25;;;;;;;13.55;6.53;;;;;;;;;;4936293;29;20134;-67
2023/07/16 04:55:51;;;;;;;15.40;6.18;;;17.80;99.90;;;;;;4936231;29;20454;-68
2023/07/16 04:58:17;;;;;;;11.10;6.30;;;17.80;99.90;;;;;;4936915;29;20039;-67
2023/07/16 05:00:42;;;;;;;13.90;6.78;;;18.00;99.90;;;;;;4936074;29;20043;-67
2023/07/16 05:03:08;;;;;;;15.77;6.65;;;18.00;99.90;;;;;;4937188;29;20046;-69
2023/07/16 05:05:34;;;;;;;14.95;5.70;;;18.10;99.90;;;;;;4937289;29;20035;-67
2023/07/16 05:08:01;;;;;;;15.85;6.15;;;18.00;99.90;;;;;;4937270;29;20520;-67
2023/07/16 05:10:27;;;;;;;10.73;5.20;;;17.90;99.90;;;;;;4936709;29;20055;-69
2023/07/16 05:12:53;;;;;;;14.63;5.25;;;18.20;99.90;;;;;;4936880;29;20043;-67
2023/07/16 05:15:19;;;;;;;9.88;6.15;;;18.00;99.90;;;;;;4937158;29;20066;-67
2023/07/16 05:17:45;;;;;;;17.55;6.28;;;17.90;99.90;;;;;;4937249;29;20044;-67
2023/07/16 05:20:11;;;;;;;11.32;5.38;;;;;;;;;;4936694;29;20039;-67
2023/07/16 05:22:37;;;;;;;13.25;5.70;;;17.90;99.90;;;;;;4936890;29;20130;-68
2023/07/16 05:25:03;;;;;;;12.23;5.35;;;17.90;99.90;;;;;;4936961;29;20519;-67
2023/07/16 05:27:29;;;;;;;10.63;5.90;;;17.70;99.90;;;;;;4935705;29;20058;-65
2023/07/16 05:29:54;;;;;;;14.00;5.80;;;17.90;99.90;;;;;;4936245;29;20043;-67
2023/07/16 05:32:21;;;;;;;19.73;5.40;;;17.90;99.90;;;;;;4935536;29;20047;-67
2023/07/16 05:34:47;;;;;;;13.02;5.20;;;18.00;99.90;;;;;;4936755;29;20040;-67
2023/07/16 05:37:13;;;;;;;11.50;4.40;;;18.10;99.90;;;;;;4936649;29;20043;-67
2023/07/16 05:39:38;;;;;;;12.68;5.07;;;18.00;99.90;;;;;;4935078;29;20079;-67
2023/07/16 05:42:04;;;;;;;10.30;4.63;;;18.10;99.90;;;;;;4935751;29;20039;-67
2023/07/16 05:44:30;;;;;;;12.23;5.07;;;18.00;99.90;;;;;;4935196;29;20069;-66
2023/07/16 05:46:56;;;;;;;10.98;5.50;;;18.10;99.90;;;;;;4936327;29;20467;-66
2023/07/16 05:49:21;;;;;;;15.73;4.45;;;18.00;99.90;;;;;;4936016;29;20043;-67
2023/07/16 05:51:48;;;;;;;16.40;6.28;;;17.80;99.90;;;;;;4935287;29;20046;-67
2023/07/16 05:54:14;;;;;;;11.98;5.15;;;17.70;99.90;;;;;;4936284;29;20052;-67
2023/07/16 05:56:40;;;;;;;10.20;4.45;;;;;;;;;;4934861;29;20495;-67
2023/07/16 05:59:06;;;;;;;9.02;4.78;;;;;;;;;;4936022;29;20051;-67
2023/07/16 06:01:31;;;;;;;9.95;4.80;;;17.80;99.90;;;;;;4936357;29;20054;-67
2023/07/16 06:03:57;;;;;;;11.57;5.13;;;17.80;99.90;;;;;;4936055;29;20043;-67
2023/07/16 06:06:22;;;;;;;11.15;5.03;;;17.60;99.90;;;;;;4935960;29;20039;-67
2023/07/16 06:08:48;;;;;;;14.50;5.55;;;17.70;99.90;;;;;;4935652;29;20087;-67
2023/07/16 06:11:14;;;;;;;12.70;5.13;;;17.80;99.90;;;;;;4934699;29;20149;-67
2023/07/16 06:13:40;;;;;;;13.20;5.20;;;17.70;99.90;;;;;;4919050;29;20071;-67
2023/07/16 06:16:06;;;;;;;13.07;5.80;;;;;;;;;;4934602;29;20495;-68
2023/07/16 06:18:31;;;;;;;17.27;6.28;;;17.70;99.90;;;;;;4935577;29;20071;-68
2023/07/16 06:20:57;;;;;;;15.90;6.20;;;17.50;99.90;;;;;;4934584;29;20134;-67
2023/07/16 06:23:23;;;;;;;13.18;5.40;;;17.60;99.90;;;;;;4935613;29;20048;-66
2023/07/16 06:25:54;;;;;;;18.58;6.15;;;17.60;99.90;;;;;;4934528;29;20127;-66
2023/07/16 06:28:20;;;;;;;12.73;5.82;;;17.80;99.90;;;;;;4935785;29;20067;-67
2023/07/16 06:30:45;;;;;;;12.50;5.65;;;17.80;99.90;;;;;;4934178;29;20470;-67
2023/07/16 06:33:11;;;;;;;14.68;6.35;;;;;;;;;;4934570;29;20051;-67
2023/07/16 06:35:37;;;;;;;15.15;4.70;;;17.80;99.90;;;;;;4934172;29;20126;-67
2023/07/16 06:38:04;;;;;;;13.30;5.10;;;17.60;99.90;;;;;;4934349;29;20508;-66
2023/07/16 06:40:30;;;;;;;17.95;6.35;;;17.80;99.90;;;;;;4935209;29;20095;-67
2023/07/16 06:42:56;;;;;;;17.55;6.28;;;17.70;99.90;;;;;;4934086;29;20056;-66
2023/07/16 06:45:22;;;;;;;11.77;5.78;;;17.70;99.90;;;;;;4935401;29;20499;-68
2023/07/16 06:47:49;;;;;;;16.63;5.82;;;;;;;;;;4935289;29;20078;-66
2023/07/16 06:50:14;;;;;;;13.75;5.80;;;17.80;99.90;;;;;;4934772;29;20518;-66
2023/07/16 06:52:40;;;;;;;15.07;6.43;;;17.90;99.90;;;;;;4934062;29;20051;-66
2023/07/16 06:55:06;;;;;;;15.25;5.50;;;18.20;99.90;;;;;;4934941;29;20130;-66
2023/07/16 06:57:32;;;;;;;9.55;5.50;;;18.10;99.90;;;;;;4934667;29;20075;-66
2023/07/16 06:59:57;;;;;;;12.23;5.28;;;18.40;99.90;;;;;;4934782;29;20483;-67
2023/07/16 07:02:23;;;;;;;15.35;5.28;;;18.30;99.90;;;;;;4934988;29;20055;-67
2023/07/16 07:04:50;;;;;;;14.48;5.60;;;18.30;99.90;;;;;;4933685;29;20044;-66
2023/07/16 07:07:16;;;;;;;10.88;5.35;;;18.40;99.90;;;;;;4933603;29;20040;-66
2023/07/16 07:09:41;;;;;;;14.95;6.30;;;18.40;99.90;;;;;;4933446;29;20459;-66
2023/07/16 07:12:07;;;;;;;10.82;5.20;;;18.30;99.90;;;;;;4934865;29;20474;-66
2023/07/16 07:14:33;;;;;;;16.40;5.78;;;18.40;99.90;;;;;;4935093;29;20091;-66
2023/07/16 07:16:59;;;;;;;13.27;5.53;;;18.50;99.90;;;;;;4933671;29;20052;-66
2023/07/16 07:19:25;;;;;;;10.07;5.50;;;18.40;99.90;;;;;;4935402;29;20458;-67
2023/07/16 07:21:50;;;;;;;10.07;5.63;;;18.60;99.90;;;;;;4935401;29;20047;-67
2023/07/16 07:24:16;;;;;;;14.98;6.13;;;18.50;99.90;;;;;;4935702;29;20420;-66
2023/07/16 07:26:42;;;;;;;13.65;6.43;;;18.50;99.90;;;;;;4933932;29;20047;-67
2023/07/16 07:29:07;;;;;;;10.77;5.55;;;18.60;99.90;;;;;;4933581;29;20067;-66
2023/07/16 07:31:33;;;;;;;11.88;6.13;;;18.50;99.90;;;;;;4917676;29;20044;-67
2023/07/16 07:33:59;;;;;;;13.77;6.43;;;18.20;99.90;;;;;;4934709;29;20575;-68
2023/07/16 07:36:25;;;;;;;11.05;6.22;;;18.30;99.90;;;;;;4933349;29;20126;-67
2023/07/16 07:38:50;;;;;;;10.60;5.57;;;18.40;99.90;;;;;;4934251;29;20183;-67
2023/07/16 07:41:16;;;;;;;14.63;5.70;;;18.60;99.90;;;;;;4917315;29;20058;-67
2023/07/16 07:43:42;;;;;;;14.70;5.28;;;18.50;99.90;;;;;;4934647;29;20059;-67
2023/07/16 07:46:08;;;;;;;12.38;5.82;;;18.50;99.90;;;;;;4933324;29;20043;-66
2023/07/16 07:48:34;;;;;;;14.50;5.65;;;18.70;99.90;;;;;;4934122;29;20123;-68
2023/07/16 07:50:59;;;;;;;11.18;5.53;;;18.40;99.90;;;;;;4934235;29;20496;-67
2023/07/16 07:53:25;;;;;;;12.50;5.78;;;18.30;99.90;;;;;;4934387;29;20051;-67
2023/07/16 07:55:51;;;;;;;11.68;6.22;;;18.40;99.90;;;;;;4933178;29;20407;-67
2023/07/16 07:58:16;;;;;;;14.82;7.60;;;18.10;99.90;;;;;;4932826;29;20055;-65
2023/07/16 08:00:42;;;;;;;12.60;6.18;;;;;;;;;;4933083;29;20060;-68
2023/07/16 08:03:08;;;;;;;15.40;5.90;;;17.70;99.90;;;;;;4934184;29;20044;-67
2023/07/16 08:05:33;;;;;;;16.67;6.60;;;18.30;99.90;;;;;;4934314;29;20447;-67
2023/07/16 08:07:59;;;;;;;14.35;6.75;;;18.20;99.90;;;;;;4934211;29;20050;-67
2023/07/16 08:10:25;;;;;;;16.38;7.18;;;18.30;99.90;;;;;;4934575;29;20055;-67
2023/07/16 08:12:51;;;;;;;16.33;6.30;;;;;;;;;;4938044;29;20521;-67
2023/07/16 08:15:18;;;;;;;14.38;7.97;;;18.20;99.90;;;;;;4938033;29;20051;-68
2023/07/16 08:17:44;;;;;;;12.82;6.72;;;18.30;99.90;;;;;;4937968;29;20052;-67
2023/07/16 08:20:11;;;;;;;14.18;6.38;;;18.70;99.90;;;;;;4937626;29;20068;-67
2023/07/16 08:22:38;;;;;;;13.90;7.47;;;17.30;99.90;;;;;;4936478;29;20144;-68
2023/07/16 08:25:04;;;;;;;10.52;6.00;;;19.00;99.90;;;;;;4936912;29;20047;-66
2023/07/16 08:27:30;;;;;;;16.63;6.63;;;18.90;99.90;;;;;;4937920;29;20039;-67
2023/07/16 08:29:56;;;;;;;14.85;6.00;;;18.60;99.90;;;;;;4936027;29;20123;-67
2023/07/16 08:32:23;;;;;;;15.30;6.72;;;18.70;99.90;;;;;;4921001;29;20081;-67
2023/07/16 08:34:49;;;;;;;13.68;6.55;;;19.10;99.90;;;;;;4920482;29;20044;-66
2023/07/16 08:37:14;;;;;;;15.23;6.53;;;19.20;99.90;;;;;;4936384;29;20566;-67
2023/07/16 08:39:40;;;;;;;14.43;7.03;;;18.90;99.90;;;;;;4920272;29;20126;-67
2023/07/16 08:42:08;;;;;;;14.80;6.68;;;19.40;99.90;;;;;;4936235;29;20076;-66
2023/07/16 08:44:35;;;;;;;14.60;7.13;;;19.40;99.90;;;;;;4936406;29;20495;-67
2023/07/16 08:47:00;;;;;;;11.35;6.05;;;19.70;99.90;;;;;;4937361;29;20071;-67
2023/07/16 08:49:30;;;;;;;13.80;6.30;;;19.80;99.90;;;;;;4935930;29;20040;-67
2023/07/16 08:51:56;;;;;;;13.93;5.93;;;20.10;99.90;;;;;;4937674;29;20086;-67
2023/07/16 08:54:22;;;;;;;16.27;6.55;;;20.20;99.90;;;;;;4936341;29;20111;-67
2023/07/16 08:56:48;;;;;;;12.88;5.78;;;20.20;99.90;;;;;;4936218;29;20075;-67
2023/07/16 08:59:17;;;;;;;13.13;5.43;;;19.90;99.90;;;;;;4935590;29;20048;-66
2023/07/16 09:01:43;;;;;;;12.93;5.50;;;20.00;99.90;;;;;;4937048;29;20048;-67
2023/07/16 09:04:09;;;;;;;12.82;5.43;;;19.80;99.90;;;;;;4935804;29;20044;-67
2023/07/16 09:06:34;;;;;;;13.93;6.38;;;19.50;99.90;;;;;;4937278;29;20513;-67
2023/07/16 09:09:00;;;;;;;16.38;5.63;;;19.20;99.90;;;;;;4937340;29;20040;-66
2023/07/16 09:11:27;;;;;;;18.20;5.75;;;19.40;99.90;;;;;;4935992;29;20040;-67
2023/07/16 09:13:52;;;;;;;14.23;5.38;;;19.70;99.90;;;;;;4935710;29;20054;-67
2023/07/16 09:16:18;;;;;;;13.70;6.40;;;19.90;99.90;;;;;;4935893;29;20407;-67
2023/07/16 09:18:45;;;;;;;9.18;5.38;;;19.90;99.90;;;;;;4935240;29;20039;-67
2023/07/16 09:21:11;;;;;;;11.00;6.25;;;20.10;99.90;;;;;;4936572;29;20055;-67
2023/07/16 09:23:37;;;;;;;12.40;5.40;;;19.90;99.90;;;;;;4936765;29;20082;-66
2023/07/16 09:26:03;;;;;;;12.48;5.40;;;19.50;99.90;;;;;;4936822;29;20498;-67
2023/07/16 09:28:31;;;;;;;12.18;6.47;;;19.30;99.90;;;;;;4936442;29;20040;-66
2023/07/16 09:31:04;;;;;;;15.82;6.18;;;19.50;99.90;;;;;;4936260;29;20503;-67
2023/07/16 09:33:31;;;;;;;11.25;5.63;;;19.70;99.90;;;;;;4936807;29;20122;-66
2023/07/16 09:35:57;;;;;;;10.73;5.78;;;19.80;99.90;;;;;;4936641;29;20039;-67
2023/07/16 09:38:26;;;;;;;11.25;5.60;;;20.00;99.90;;;;;;4934903;29;20529;-67
2023/07/16 09:40:53;;;;;;;12.80;6.28;;;20.10;99.90;;;;;;4935089;29;20043;-67
2023/07/16 09:43:20;;;;;;;13.02;5.10;;;20.60;99.90;;;;;;4935022;29;20080;-67
2023/07/16 09:45:46;;;;;;;10.93;5.13;;;21.40;99.90;;;;;;4919326;29;20075;-67
2023/07/16 09:48:14;;;;;;;10.98;5.45;;;20.60;99.90;;;;;;4936831;29;20447;-67
2023/07/16 09:50:45;;;;;;;8.38;4.72;;;20.90;99.90;;;;;;4934808;29;20036;-67
2023/07/16 09:53:12;;;;;;;9.70;4.95;;;20.60;99.90;;;;;;4935322;29;20062;-67
2023/07/16 09:55:39;;;;;;;12.18;5.82;;;20.00;99.90;;;;;;4936328;29;20043;-68
2023/07/16 09:58:09;;;;;;;12.05;4.82;;;20.10;99.90;;;;;;4936189;29;20054;-67
2023/07/16 10:00:36;;;;;;;13.43;5.10;;;20.50;99.90;;;;;;4934547;29;20043;-67
2023/07/16 10:03:01;;;;;;;13.77;5.25;;;20.10;99.90;;;;;;4935854;29;20054;-68
2023/07/16 10:05:28;;;;;;;11.15;5.72;;;20.50;99.90;;;;;;4935972;29;20407;-67
2023/07/16 10:07:59;;;;;;;10.38;5.47;;;20.50;99.90;;;;;;4934798;29;20047;-67
2023/07/16 10:10:42;;;;;;;7.82;5.18;;;20.50;99.90;;;;;;4935646;29;20044;-67
2023/07/16 10:13:11;;;;;;;10.23;5.25;;;20.40;99.90;;;;;;4934860;29;20518;-67
2023/07/16 10:15:36;;;;;;;10.68;5.65;;;20.30;99.90;;;;;;4935928;29;20035;-67
2023/07/16 10:18:02;;;;;;;11.20;5.35;;;20.20;99.90;;;;;;4934441;29;20127;-67
2023/07/16 10:20:34;;;;;;;7.05;5.07;;;19.90;99.90;;;;;;4934151;29;20083;-68
2023/07/16 10:23:13;;;;;;;12.68;5.45;;;20.30;99.90;;;;;;4935708;29;20392;-66
2023/07/16 10:25:40;;;;;;;12.75;5.70;;;20.30;99.90;;;;;;4934701;29;20043;-67
2023/07/16 10:28:06;;;;;;;14.27;5.57;;;20.20;99.90;;;;;;4935532;29;20043;-67
2023/07/16 10:30:33;;;;;;;16.00;6.45;;;20.60;99.90;;;;;;4934138;29;20142;-66
2023/07/16 10:33:02;;;;;;;13.52;6.63;;;20.40;99.90;;;;;;4934877;29;20091;-69
2023/07/16 10:35:27;;;;;;;12.48;5.78;;;21.10;99.90;;;;;;4934531;29;20407;-67
2023/07/16 10:37:54;;;;;;;11.32;5.82;;;20.80;99.90;;;;;;4935285;29;20135;-69
2023/07/16 10:40:20;;;;;;;12.40;5.63;;;20.80;99.90;;;;;;4935331;29;20062;-68
2023/07/16 10:42:48;;;;;;;12.93;4.72;;;20.80;99.90;;;;;;4934140;29;20494;-68
2023/07/16 10:45:14;;;;;;;9.85;4.45;;;21.10;99.90;;;;;;4935449;29;20036;-69
2023/07/16 10:47:54;;;;;;;10.77;5.00;;;21.10;99.90;;;;;;4918175;29;20040;-69
2023/07/16 10:50:23;;;;;;;10.40;5.78;;;21.10;99.90;;;;;;4934779;29;20046;-69
2023/07/16 10:52:53;;;;;;;9.07;4.55;;;20.80;99.90;;;;;;4933907;29;20036;-68
2023/07/16 10:55:19;;;;;;;11.05;4.72;;;20.50;99.90;;;;;;4933839;29;20044;-68
2023/07/16 10:57:48;;;;;;;12.10;5.68;;;21.50;99.90;;;;;;4934171;29;20058;-68
2023/07/16 11:00:15;;;;;;;12.88;5.07;;;20.90;99.90;;;;;;4933966;29;20054;-69
2023/07/16 11:02:43;;;;;;;14.50;5.05;;;20.60;99.90;;;;;;4933781;29;20527;-68
2023/07/16 11:05:16;;;;;;;8.95;4.68;;;20.80;99.90;;;;;;4934994;29;20582;-68
2023/07/16 11:07:49;;;;;;;11.73;4.70;;;21.10;99.90;;;;;;4934042;29;20446;-68
2023/07/16 11:10:18;;;;;;;10.20;4.90;;;20.40;99.90;;;;;;4933243;29;20043;-69
2023/07/16 11:12:44;;;;;;;9.77;5.00;;;20.00;99.90;;;;;;4934817;29;20054;-68
2023/07/16 11:15:10;;;;;;;11.52;5.05;;;19.20;99.90;;;;;;4934897;29;20514;-68
2023/07/16 11:17:38;;;;;;;9.35;4.55;;;20.50;99.90;;;;;;4935011;29;20384;-68
2023/07/16 11:20:07;;;;;;;14.32;4.80;;;20.70;99.90;;;;;;4933439;29;20468;-68
2023/07/16 11:22:36;;;;;;;13.98;4.68;;;21.00;99.90;;;;;;4934700;29;20083;-69
2023/07/16 11:25:02;;;;;;;9.65;3.80;;;21.40;99.90;;;;;;4934788;29;20059;-69
2023/07/16 11:27:30;;;;;;;13.38;4.15;;;21.40;99.90;;;;;;4934688;29;20043;-68
2023/07/16 11:29:58;;;;;;;11.07;3.15;;;21.70;99.90;;;;;;4932998;29;20039;-68
2023/07/16 11:32:31;;;;;;;11.43;3.25;;;21.40;99.90;;;;;;4934949;29;20115;-69
2023/07/16 11:34:58;;;;;;;12.40;2.83;;;21.60;99.90;;;;;;4935009;29;20095;-69
2023/07/16 11:37:25;;;;;;;7.30;2.45;;;21.40;99.90;;;;;;4933968;29;20047;-69
2023/07/16 11:39:54;;;;;;;11.45;3.75;;;21.70;99.90;;;;;;4933480;29;20411;-68
2023/07/16 11:42:29;;;;;;;9.57;2.85;;;22.40;99.90;;;;;;4957645;23;20047;-72
2023/07/16 11:44:55;;;;;;;11.10;3.50;;;22.30;99.90;;;;;;4957965;28;20043;-72
2023/07/16 11:47:21;;;;;;;9.63;3.08;;;22.30;99.90;;;;;;4943584;28;20050;-72
2023/07/16 11:49:47;;;;;;;12.77;3.38;;;;;;;;;;4960456;28;20039;-72
2023/07/16 11:52:12;;;;;;;14.43;3.80;;;22.10;99.90;;;;;;4960309;28;20043;-72
2023/07/16 11:54:39;;;;;;;12.65;3.63;;;;;;;;;;4959914;28;20039;-72
2023/07/16 11:57:05;;;;;;;14.40;4.60;;;22.30;99.90;;;;;;4942572;29;20039;-72
2023/07/16 11:59:30;;;;;;;10.70;4.18;;;20.40;99.90;;;;;;4958596;28;20070;-72
2023/07/16 12:01:57;;;;;;;12.50;4.47;;;;;;;;;;4942899;29;20346;-72
2023/07/16 12:04:23;;;;;;;11.10;4.25;;;22.00;99.90;;;;;;4960095;28;20043;-72
2023/07/16 12:06:49;;;;;;;11.93;5.22;;;21.80;99.90;;;;;;4960370;28;20541;-72
2023/07/16 12:09:15;;;;;;;14.00;5.28;;;21.80;99.90;;;;;;4959068;28;20043;-72
2023/07/16 12:11:40;;;;;;;16.55;4.65;;;21.60;99.90;;;;;;4960000;28;20043;-73
2023/07/16 12:14:06;;;;;;;9.40;4.45;;;21.50;99.90;;;;;;4959170;28;20126;-73
2023/07/16 12:16:34;;;;;;;10.80;4.43;;;21.60;99.90;;;;;;4959110;29;20118;-70
2023/07/16 12:19:00;;;;;;;11.98;4.30;;;21.70;99.90;;;;;;4960175;28;20483;-70
2023/07/16 12:21:26;;;;;;;10.23;4.93;;;21.50;99.90;;;;;;4960237;28;20083;-70
2023/07/16 12:23:54;;;;;;;13.85;4.60;;;;;;;;;;4959576;29;20039;-69
2023/07/16 12:26:20;;;;;;;13.43;3.95;;;21.90;99.90;;;;;;4959234;29;20081;-72
2023/07/16 12:28:46;;;;;;;11.63;4.03;;;22.00;99.90;;;;;;4959141;29;20067;-73
2023/07/16 12:31:11;;;;;;;11.40;4.25;;;21.70;99.90;;;;;;4960008;28;20027;-72
2023/07/16 12:33:40;;;;;;;16.30;4.68;;;;;;;;;;4942368;28;20047;-72
2023/07/16 12:36:05;;;;;;;10.68;5.18;;;21.20;99.90;;;;;;4942575;29;20043;-72
2023/07/16 12:38:31;;;;;;;11.85;4.03;;;;;;;;;;4958354;28;20043;-73
2023/07/16 12:40:57;;;;;;;11.68;4.40;;;21.10;99.90;;;;;;4958645;28;20047;-73
2023/07/16 12:43:23;;;;;;;8.80;3.80;;;20.90;99.90;;;;;;4958637;29;20039;-72
2023/07/16 12:45:49;;;;;;;10.15;4.57;;;20.70;99.90;;;;;;4942878;29;20188;-72